createdAt,value
2022-08-28T00:00:28.126Z,87.58
2022-08-28T00:02:55.457Z,86.99
2022-08-28T00:05:23.198Z,87.24
2022-08-28T00:07:49.753Z,88.76
2022-08-28T00:10:17.856Z,88.69
2022-08-28T00:12:45.200Z,89.28
2022-08-28T00:15:13.015Z,89.40
2022-08-28T00:17:40.124Z,88.80
2022-08-28T00:20:07.833Z,88.49
2022-08-28T00:22:34.460Z,89.39
2022-08-28T00:25:00.849Z,88.36
2022-08-28T00:27:46.830Z,90.03
2022-08-28T00:30:13.173Z,89.89
2022-08-28T00:32:39.500Z,90.03
2022-08-28T00:35:06.654Z,89.45
2022-08-28T00:37:33.616Z,90.14
2022-08-28T00:40:00.040Z,90.25
2022-08-28T00:42:27.512Z,90.42
2022-08-28T00:44:53.846Z,89.92
2022-08-28T00:47:20.229Z,89.42
2022-08-28T00:49:51.340Z,89.50
2022-08-28T00:52:18.963Z,89.41
2022-08-28T00:54:58.547Z,89.67
2022-08-28T00:57:28.267Z,90.27
2022-08-28T00:59:54.639Z,90.02
2022-08-28T01:02:21.289Z,89.27
2022-08-28T01:04:48.371Z,89.35
2022-08-28T01:07:15.575Z,88.98
2022-08-28T01:09:43.827Z,89.97
2022-08-28T01:12:30.460Z,89.16
2022-08-28T01:14:59.935Z,88.60
2022-08-28T01:17:28.688Z,88.70
2022-08-28T01:19:58.330Z,87.63
2022-08-28T01:22:24.842Z,87.46
2022-08-28T01:24:53.222Z,86.48
2022-08-28T01:27:20.025Z,86.20
2022-08-28T01:29:50.483Z,85.97
2022-08-28T01:32:47.199Z,87.44
2022-08-28T01:35:15.134Z,87.39
2022-08-28T01:37:41.815Z,87.12
2022-08-28T01:40:09.382Z,86.79
2022-08-28T01:42:42.827Z,86.35
2022-08-28T01:45:12.030Z,87.15
2022-08-28T01:47:39.097Z,87.10
2022-08-28T01:50:07.287Z,87.25
2022-08-28T01:52:33.702Z,87.05
2022-08-28T01:55:00.288Z,86.96
2022-08-28T01:57:26.665Z,87.17
2022-08-28T01:59:54.304Z,87.35
2022-08-28T02:02:20.992Z,87.59
2022-08-28T02:04:48.373Z,87.51
2022-08-28T02:07:16.804Z,87.06
2022-08-28T02:09:43.587Z,87.04
2022-08-28T02:12:10.074Z,86.99
2022-08-28T02:14:36.680Z,86.25
2022-08-28T02:17:03.052Z,87.29
2022-08-28T02:19:30.243Z,87.00
2022-08-28T02:21:56.639Z,86.26
2022-08-28T02:24:23.293Z,86.52
2022-08-28T02:26:49.686Z,86.66
2022-08-28T02:29:16.026Z,87.31
2022-08-28T02:31:43.079Z,87.68
2022-08-28T02:34:11.357Z,87.80
2022-08-28T02:36:39.887Z,87.78
2022-08-28T02:39:06.255Z,85.79
2022-08-28T02:41:32.894Z,85.83
2022-08-28T02:43:59.475Z,85.18
2022-08-28T02:46:26.623Z,84.89
2022-08-28T02:48:53.051Z,85.13
2022-08-28T02:51:20.105Z,83.84
2022-08-28T02:53:46.571Z,83.79
2022-08-28T02:56:12.910Z,83.77
2022-08-28T02:58:40.290Z,84.00
2022-08-28T03:01:07.923Z,83.96
2022-08-28T03:03:34.300Z,83.77
2022-08-28T03:06:01.499Z,83.38
2022-08-28T03:08:28.637Z,83.46
2022-08-28T03:10:55.066Z,83.31
2022-08-28T03:13:26.781Z,83.96
2022-08-28T03:15:55.964Z,84.15
2022-08-28T03:18:22.934Z,83.08
2022-08-28T03:20:49.289Z,83.58
2022-08-28T03:23:27.761Z,82.84
2022-08-28T03:26:05.027Z,82.78
2022-08-28T03:28:33.318Z,83.97
2022-08-28T03:31:00.049Z,84.32
2022-08-28T03:33:27.259Z,83.39
2022-08-28T03:35:55.159Z,83.01
2022-08-28T03:38:22.121Z,83.48
2022-08-28T03:40:48.544Z,84.46
2022-08-28T03:43:16.436Z,83.88
2022-08-28T03:45:51.943Z,83.88
2022-08-28T03:48:20.069Z,84.19
2022-08-28T03:50:47.322Z,84.64
2022-08-28T03:53:15.814Z,84.79
2022-08-28T03:55:42.827Z,85.30
2022-08-28T03:58:09.298Z,83.95
2022-08-28T04:00:35.754Z,84.41
2022-08-28T04:03:03.044Z,84.75
2022-08-28T04:05:29.490Z,85.52
2022-08-28T04:07:55.851Z,85.13
2022-08-28T04:10:22.269Z,85.19
2022-08-28T04:12:48.669Z,84.65
2022-08-28T04:15:15.148Z,84.31
2022-08-28T04:17:41.589Z,84.45
2022-08-28T04:20:09.263Z,85.15
2022-08-28T04:22:37.100Z,84.27
2022-08-28T04:25:03.915Z,84.59
2022-08-28T04:27:30.345Z,83.57
2022-08-28T04:29:56.692Z,84.31
2022-08-28T04:32:23.302Z,83.43
2022-08-28T04:34:49.948Z,83.53
2022-08-28T04:37:16.686Z,83.26
2022-08-28T04:39:43.073Z,82.89
2022-08-28T04:42:09.758Z,82.80
2022-08-28T04:44:36.122Z,82.19
2022-08-28T04:47:02.470Z,81.72
2022-08-28T04:49:28.954Z,82.31
2022-08-28T04:51:55.617Z,82.48
2022-08-28T04:54:21.999Z,81.90
2022-08-28T04:56:48.469Z,81.49
2022-08-28T04:59:14.946Z,81.82
2022-08-28T05:01:42.506Z,81.24
2022-08-28T05:04:11.325Z,81.82
2022-08-28T05:06:43.242Z,81.74
2022-08-28T05:09:09.594Z,81.82
2022-08-28T05:11:36.030Z,81.09
2022-08-28T05:14:04.418Z,82.43
2022-08-28T05:16:31.143Z,81.93
2022-08-28T05:19:01.482Z,81.65
2022-08-28T05:21:28.235Z,82.80
2022-08-28T05:23:56.477Z,83.08
2022-08-28T05:26:23.314Z,83.75
2022-08-28T05:28:54.313Z,83.80
2022-08-28T05:31:21.858Z,83.56
2022-08-28T05:33:49.213Z,83.51
2022-08-28T05:36:16.449Z,83.13
2022-08-28T05:38:43.467Z,84.14
2022-08-28T05:41:10.248Z,83.44
2022-08-28T05:43:36.611Z,84.81
2022-08-28T05:46:05.837Z,84.33
2022-08-28T05:48:36.172Z,84.17
2022-08-28T05:51:14.433Z,84.43
2022-08-28T05:53:42.474Z,83.52
2022-08-28T05:56:09.670Z,83.83
2022-08-28T05:58:37.308Z,84.03
2022-08-28T06:01:03.624Z,84.39
2022-08-28T06:03:30.021Z,84.76
2022-08-28T06:05:56.397Z,85.03
2022-08-28T06:08:23.225Z,84.33
2022-08-28T06:10:50.525Z,85.13
2022-08-28T06:13:17.474Z,85.45
2022-08-28T06:15:46.078Z,84.45
2022-08-28T06:18:12.961Z,83.87
2022-08-28T06:20:44.152Z,83.41
2022-08-28T06:23:11.342Z,83.81
2022-08-28T06:25:41.599Z,83.28
2022-08-28T06:28:10.401Z,82.92
2022-08-28T06:30:37.324Z,83.31
2022-08-28T06:33:06.994Z,83.70
2022-08-28T06:35:34.404Z,83.21
2022-08-28T06:38:00.900Z,83.55
2022-08-28T06:40:27.327Z,83.03
2022-08-28T06:42:53.723Z,82.39
2022-08-28T06:45:20.111Z,82.21
2022-08-28T06:47:47.216Z,81.91
2022-08-28T06:50:16.327Z,82.52
2022-08-28T06:52:42.678Z,83.04
2022-08-28T06:55:09.242Z,82.77
2022-08-28T06:57:37.428Z,83.35
2022-08-28T07:00:04.263Z,82.93
2022-08-28T07:02:30.722Z,83.18
2022-08-28T07:04:57.118Z,83.68
2022-08-28T07:07:31.511Z,83.93
2022-08-28T07:09:58.908Z,83.81
2022-08-28T07:12:25.270Z,82.82
2022-08-28T07:14:51.614Z,83.58
2022-08-28T07:17:18.056Z,84.54
2022-08-28T07:19:44.437Z,83.37
2022-08-28T07:22:10.873Z,83.61
2022-08-28T07:24:37.240Z,82.96
2022-08-28T07:27:05.455Z,83.33
2022-08-28T07:29:31.866Z,83.72
2022-08-28T07:31:58.951Z,83.06
2022-08-28T07:34:27.279Z,84.33
2022-08-28T07:36:53.941Z,83.52
2022-08-28T07:39:20.412Z,83.50
2022-08-28T07:41:47.376Z,84.03
2022-08-28T07:44:33.484Z,84.27
2022-08-28T07:47:03.911Z,84.12
2022-08-28T07:49:31.340Z,84.39
2022-08-28T07:51:57.741Z,85.00
2022-08-28T07:54:24.227Z,84.85
2022-08-28T07:56:51.003Z,84.19
2022-08-28T07:59:19.187Z,84.17
2022-08-28T08:01:46.959Z,83.57
2022-08-28T08:04:14.022Z,83.82
2022-08-28T08:06:41.314Z,83.68
2022-08-28T08:09:08.807Z,82.83
2022-08-28T08:11:35.193Z,82.60
2022-08-28T08:14:05.990Z,82.70
2022-08-28T08:16:38.618Z,82.55
2022-08-28T08:19:05.570Z,81.70
2022-08-28T08:21:32.631Z,81.82
2022-08-28T08:23:59.337Z,81.88
2022-08-28T08:26:29.758Z,82.02
2022-08-28T08:28:59.539Z,81.67
2022-08-28T08:31:27.550Z,82.00
2022-08-28T08:33:55.770Z,81.56
2022-08-28T08:36:23.100Z,82.08
2022-08-28T08:38:49.814Z,81.91
2022-08-28T08:41:29.251Z,82.34
2022-08-28T08:43:59.339Z,82.77
2022-08-28T08:46:31.016Z,82.52
2022-08-28T08:49:01.727Z,82.19
2022-08-28T08:51:35.412Z,82.42
2022-08-28T08:54:08.618Z,82.36
2022-08-28T08:56:35.386Z,82.98
2022-08-28T08:59:03.032Z,82.80
2022-08-28T09:01:39.020Z,82.37
2022-08-28T09:04:24.651Z,83.21
2022-08-28T09:06:57.144Z,82.78
2022-08-28T09:09:23.470Z,82.75
2022-08-28T09:12:00.985Z,82.69
2022-08-28T09:15:05.419Z,82.41
2022-08-28T09:17:34.293Z,83.44
2022-08-28T09:20:00.609Z,82.79
2022-08-28T09:22:27.023Z,82.44
2022-08-28T09:24:53.585Z,82.94
2022-08-28T09:27:27.788Z,83.15
2022-08-28T09:29:58.864Z,82.77
2022-08-28T09:32:32.081Z,82.91
2022-08-28T09:35:06.316Z,82.98
2022-08-28T09:37:34.483Z,83.28
2022-08-28T09:40:21.315Z,81.61
2022-08-28T09:43:19.166Z,81.69
2022-08-28T09:45:50.984Z,81.76
2022-08-28T09:48:19.820Z,81.77
2022-08-28T09:50:57.564Z,81.93
2022-08-28T09:53:24.060Z,81.80
2022-08-28T09:55:59.968Z,81.18
2022-08-28T09:58:35.345Z,81.02
2022-08-28T10:01:22.056Z,80.89
2022-08-28T10:03:51.558Z,81.55
2022-08-28T10:06:20.937Z,81.18
2022-08-28T10:08:54.872Z,81.59
2022-08-28T10:11:36.853Z,82.10
2022-08-28T10:14:26.407Z,82.07
2022-08-28T10:16:59.815Z,81.73
2022-08-28T10:19:41.737Z,81.95
2022-08-28T10:22:15.296Z,81.39
2022-08-28T10:24:44.753Z,81.37
2022-08-28T10:27:17.314Z,81.71
2022-08-28T10:29:51.851Z,81.95
2022-08-28T10:32:21.341Z,81.81
2022-08-28T10:34:50.720Z,81.92
2022-08-28T10:37:41.707Z,81.35
2022-08-28T10:40:11.433Z,82.23
2022-08-28T10:42:43.875Z,82.00
2022-08-28T10:45:15.073Z,81.58
2022-08-28T10:47:45.035Z,81.97
2022-08-28T10:50:22.267Z,82.71
2022-08-28T10:52:54.904Z,82.08
2022-08-28T10:55:24.053Z,82.44
2022-08-28T10:58:04.613Z,81.61
2022-08-28T11:00:48.537Z,81.24
2022-08-28T11:03:33.422Z,80.87
2022-08-28T11:06:04.155Z,81.88
2022-08-28T11:08:32.655Z,81.16
2022-08-28T11:11:00.543Z,82.15
2022-08-28T11:13:46.632Z,82.37
2022-08-28T11:16:18.678Z,81.73
2022-08-28T11:18:57.106Z,81.58
2022-08-28T11:21:23.480Z,80.59
2022-08-28T11:23:55.861Z,80.16
2022-08-28T11:26:30.330Z,80.10
2022-08-28T11:28:58.883Z,79.80
2022-08-28T11:31:28.992Z,79.51
2022-08-28T11:33:58.913Z,80.04
2022-08-28T11:36:28.208Z,80.21
2022-08-28T11:38:54.570Z,79.84
2022-08-28T11:41:27.381Z,79.38
2022-08-28T11:43:59.680Z,78.78
2022-08-28T11:46:30.303Z,79.33
2022-08-28T11:48:58.344Z,78.54
2022-08-28T11:51:35.701Z,78.97
2022-08-28T11:54:21.137Z,79.31
2022-08-28T11:56:50.427Z,78.80
2022-08-28T11:59:19.618Z,78.39
2022-08-28T12:01:48.698Z,79.02
2022-08-28T12:04:17.602Z,79.03
2022-08-28T12:06:48.643Z,78.41
2022-08-28T12:09:33.533Z,78.60
2022-08-28T12:12:01.984Z,79.01
2022-08-28T12:14:28.333Z,79.71
2022-08-28T12:17:00.888Z,80.17
2022-08-28T12:19:40.240Z,78.25
2022-08-28T12:22:11.140Z,79.09
2022-08-28T12:24:45.438Z,78.86
2022-08-28T12:27:12.068Z,77.21
2022-08-28T12:29:46.190Z,78.48
2022-08-28T12:32:28.885Z,79.40
2022-08-28T12:34:58.389Z,76.72
2022-08-28T12:37:24.743Z,78.62
2022-08-28T12:39:52.090Z,78.84
2022-08-28T12:42:20.200Z,78.98
2022-08-28T12:44:47.135Z,78.76
2022-08-28T12:47:18.870Z,79.55
2022-08-28T12:49:45.394Z,79.59
2022-08-28T12:52:18.021Z,79.71
2022-08-28T12:54:46.727Z,79.62
2022-08-28T12:57:14.342Z,78.90
2022-08-28T12:59:42.185Z,79.01
2022-08-28T13:02:24.863Z,77.03
2022-08-28T13:04:51.863Z,77.06
2022-08-28T13:07:18.426Z,75.93
2022-08-28T13:09:47.182Z,76.53
2022-08-28T13:12:18.480Z,75.99
2022-08-28T13:14:46.105Z,75.27
2022-08-28T13:17:13.941Z,74.88
2022-08-28T13:19:40.372Z,75.87
2022-08-28T13:22:09.211Z,75.13
2022-08-28T13:24:35.560Z,76.28
2022-08-28T13:27:04.495Z,76.83
2022-08-28T13:29:31.833Z,76.69
2022-08-28T13:32:02.981Z,76.56
2022-08-28T13:34:33.789Z,74.33
2022-08-28T13:37:01.967Z,72.85
2022-08-28T13:39:31.875Z,72.31
2022-08-28T13:42:17.866Z,72.14
2022-08-28T13:44:47.681Z,72.39
2022-08-28T13:47:14.163Z,72.33
2022-08-28T13:49:40.523Z,72.32
2022-08-28T13:52:07.533Z,72.82
2022-08-28T13:54:36.325Z,74.30
2022-08-28T13:57:03.273Z,74.64
2022-08-28T13:59:30.256Z,75.94
2022-08-28T14:02:17.054Z,72.78
2022-08-28T14:04:44.791Z,73.09
2022-08-28T14:07:14.179Z,72.55
2022-08-28T14:09:41.041Z,72.23
2022-08-28T14:12:08.560Z,72.99
2022-08-28T14:14:35.555Z,71.06
2022-08-28T14:17:02.233Z,71.21
2022-08-28T14:19:29.253Z,71.93
2022-08-28T14:21:55.784Z,71.54
2022-08-28T14:24:22.462Z,70.46
2022-08-28T14:26:51.349Z,69.63
2022-08-28T14:29:17.825Z,68.54
2022-08-28T14:31:44.746Z,67.95
2022-08-28T14:34:12.783Z,69.58
2022-08-28T14:36:39.829Z,68.25
2022-08-28T14:39:07.075Z,67.86
2022-08-28T14:41:34.350Z,65.62
2022-08-28T14:44:01.210Z,66.27
2022-08-28T14:46:31.849Z,65.33
2022-08-28T14:48:59.325Z,64.18
2022-08-28T14:51:25.976Z,63.54
2022-08-28T14:53:52.618Z,62.89
2022-08-28T14:56:19.637Z,62.71
2022-08-28T14:58:46.157Z,62.36
2022-08-28T15:01:23.418Z,61.32
2022-08-28T15:03:49.977Z,61.77
2022-08-28T15:06:17.123Z,61.49
2022-08-28T15:08:43.761Z,61.11
2022-08-28T15:11:14.261Z,61.12
2022-08-28T15:13:45.694Z,61.37
2022-08-28T15:16:15.624Z,61.19
2022-08-28T15:18:42.996Z,61.00
2022-08-28T15:21:19.782Z,60.61
2022-08-28T15:23:46.332Z,61.92
2022-08-28T15:26:15.566Z,61.90
2022-08-28T15:28:42.135Z,62.06
2022-08-28T15:31:08.578Z,61.95
2022-08-28T15:33:35.073Z,61.99
2022-08-28T15:36:01.550Z,60.85
2022-08-28T15:38:28.002Z,60.97
2022-08-28T15:41:13.040Z,62.22
2022-08-28T15:43:39.371Z,63.97
2022-08-28T15:46:10.334Z,61.63
2022-08-28T15:48:36.753Z,63.42
2022-08-28T15:51:04.235Z,62.70
2022-08-28T15:53:30.590Z,61.71
2022-08-28T15:55:56.960Z,62.53
2022-08-28T15:58:23.346Z,62.14
2022-08-28T16:00:49.965Z,61.46
2022-08-28T16:03:16.363Z,61.24
2022-08-28T16:05:44.814Z,61.83
2022-08-28T16:08:11.156Z,61.01
2022-08-28T16:10:38.176Z,61.30
2022-08-28T16:13:06.527Z,61.99
2022-08-28T16:15:33.595Z,62.72
2022-08-28T16:17:59.975Z,55.58
2022-08-28T16:20:26.395Z,62.14
2022-08-28T16:22:52.990Z,62.68
2022-08-28T16:25:19.650Z,61.88
2022-08-28T16:27:46.016Z,60.42
2022-08-28T16:30:15.693Z,61.23
2022-08-28T16:32:59.039Z,59.99
2022-08-28T16:35:25.367Z,59.93
2022-08-28T16:37:51.833Z,61.21
2022-08-28T16:40:18.345Z,60.62
2022-08-28T16:42:51.851Z,61.26
2022-08-28T16:45:18.746Z,59.64
2022-08-28T16:47:45.144Z,59.83
2022-08-28T16:50:12.289Z,58.66
2022-08-28T16:52:39.098Z,57.78
2022-08-28T16:55:06.697Z,58.10
2022-08-28T16:57:33.127Z,57.97
2022-08-28T17:00:00.397Z,57.22
2022-08-28T17:02:27.542Z,57.50
2022-08-28T17:04:54.859Z,56.78
2022-08-28T17:07:21.818Z,56.98
2022-08-28T17:09:48.188Z,57.96
2022-08-28T17:12:14.750Z,58.69
2022-08-28T17:14:41.821Z,58.60
2022-08-28T17:17:08.188Z,56.82
2022-08-28T17:19:34.596Z,56.81
2022-08-28T17:22:19.679Z,57.16
2022-08-28T17:24:46.789Z,56.87
2022-08-28T17:27:22.770Z,56.87
2022-08-28T17:29:50.209Z,56.70
2022-08-28T17:32:16.599Z,56.49
2022-08-28T17:34:42.979Z,57.22
2022-08-28T17:37:10.955Z,56.52
2022-08-28T17:39:37.641Z,57.00
2022-08-28T17:42:04.290Z,57.05
2022-08-28T17:44:30.707Z,56.97
2022-08-28T17:46:57.277Z,57.59
2022-08-28T17:49:23.651Z,57.15
2022-08-28T17:51:51.012Z,56.71
2022-08-28T17:54:18.744Z,57.01
2022-08-28T17:56:46.373Z,57.29
2022-08-28T17:59:13.224Z,57.84
2022-08-28T18:01:40.991Z,57.57
2022-08-28T18:04:08.827Z,57.84
2022-08-28T18:06:35.522Z,59.47
2022-08-28T18:09:01.902Z,58.26
2022-08-28T18:11:28.512Z,59.50
2022-08-28T18:13:55.107Z,59.45
2022-08-28T18:16:21.611Z,59.68
2022-08-28T18:18:48.239Z,59.47
2022-08-28T18:21:14.990Z,58.70
2022-08-28T18:23:41.396Z,60.06
2022-08-28T18:26:08.313Z,59.23
2022-08-28T18:28:34.747Z,59.48
2022-08-28T18:31:01.331Z,59.83
2022-08-28T18:33:27.847Z,61.25
2022-08-28T18:35:54.345Z,61.33
2022-08-28T18:38:22.149Z,63.31
2022-08-28T18:40:49.827Z,60.84
2022-08-28T18:43:20.108Z,65.37
2022-08-28T18:45:46.706Z,65.58
2022-08-28T18:48:13.313Z,65.57
2022-08-28T18:50:42.231Z,66.51
2022-08-28T18:53:12.239Z,66.88
2022-08-28T18:55:38.739Z,67.87
2022-08-28T18:58:05.190Z,69.43
2022-08-28T19:00:33.776Z,69.64
2022-08-28T19:03:00.389Z,70.23
2022-08-28T19:05:26.985Z,70.57
2022-08-28T19:07:53.447Z,70.37
2022-08-28T19:10:32.487Z,71.08
2022-08-28T19:13:01.009Z,71.33
2022-08-28T19:15:28.255Z,72.23
2022-08-28T19:17:54.687Z,72.38
2022-08-28T19:20:21.330Z,73.19
2022-08-28T19:22:48.776Z,73.26
2022-08-28T19:25:27.597Z,73.93
2022-08-28T19:27:54.774Z,74.31
2022-08-28T19:30:25.327Z,75.61
2022-08-28T19:32:51.834Z,76.24
2022-08-28T19:35:18.345Z,75.99
2022-08-28T19:37:45.058Z,76.05
2022-08-28T19:40:11.858Z,76.32
2022-08-28T19:42:38.459Z,77.17
2022-08-28T19:45:09.269Z,77.78
2022-08-28T19:47:36.152Z,76.66
2022-08-28T19:50:02.879Z,72.88
2022-08-28T19:52:29.689Z,74.54
2022-08-28T19:54:56.100Z,71.05
2022-08-28T19:57:22.517Z,74.92
2022-08-28T19:59:48.937Z,69.62
2022-08-28T20:02:15.364Z,69.30
2022-08-28T20:04:41.769Z,68.30
2022-08-28T20:07:08.300Z,68.29
2022-08-28T20:09:34.655Z,67.62
2022-08-28T20:12:01.336Z,67.23
2022-08-28T20:14:27.765Z,66.91
2022-08-28T20:16:54.518Z,67.03
2022-08-28T20:19:22.572Z,65.44
2022-08-28T20:21:50.043Z,65.50
2022-08-28T20:24:21.999Z,66.85
2022-08-28T20:26:49.203Z,64.70
2022-08-28T20:29:15.879Z,65.38
2022-08-28T20:31:44.769Z,65.73
2022-08-28T20:34:12.231Z,64.64
2022-08-28T20:36:38.954Z,65.23
2022-08-28T20:39:07.243Z,65.55
2022-08-28T20:41:34.126Z,65.23
2022-08-28T20:44:06.199Z,64.73
2022-08-28T20:46:37.050Z,65.47
2022-08-28T20:49:06.386Z,64.67
2022-08-28T20:51:51.474Z,65.15
2022-08-28T20:54:19.404Z,65.41
2022-08-28T20:56:45.758Z,65.37
2022-08-28T20:59:12.574Z,65.92
2022-08-28T21:01:39.012Z,66.37
2022-08-28T21:04:05.649Z,66.74
2022-08-28T21:06:32.496Z,66.55
2022-08-28T21:08:59.334Z,65.87
2022-08-28T21:11:26.101Z,66.81
2022-08-28T21:13:52.585Z,67.23
2022-08-28T21:16:19.091Z,67.00
2022-08-28T21:19:12.111Z,69.42
2022-08-28T21:21:33.545Z,68.08
2022-08-28T21:23:59.943Z,66.66
2022-08-28T21:26:26.330Z,67.70
2022-08-28T21:28:53.163Z,68.17
2022-08-28T21:31:20.746Z,66.67
2022-08-28T21:33:47.458Z,66.12
2022-08-28T21:36:17.074Z,67.94
2022-08-28T21:38:44.823Z,67.12
2022-08-28T21:41:12.856Z,68.09
2022-08-28T21:43:40.052Z,67.94
2022-08-28T21:46:06.754Z,70.37
2022-08-28T21:48:38.302Z,69.41
2022-08-28T21:51:08.778Z,68.74
2022-08-28T21:53:35.810Z,68.76
2022-08-28T21:56:02.697Z,70.19
2022-08-28T21:58:29.329Z,68.60
2022-08-28T22:00:59.184Z,66.90
2022-08-28T22:03:26.696Z,67.45
2022-08-28T22:05:54.272Z,68.61
2022-08-28T22:08:22.366Z,67.51
2022-08-28T22:10:48.803Z,67.85
2022-08-28T22:13:15.799Z,66.87
2022-08-28T22:15:43.602Z,66.91
2022-08-28T22:18:10.912Z,66.92
2022-08-28T22:20:58.220Z,67.58
2022-08-28T22:23:24.864Z,66.97
2022-08-28T22:25:51.251Z,67.30
2022-08-28T22:28:17.632Z,68.33
2022-08-28T22:30:44.004Z,67.68
2022-08-28T22:33:10.758Z,67.23
2022-08-28T22:35:37.799Z,68.16
2022-08-28T22:38:04.147Z,68.19
2022-08-28T22:40:30.576Z,68.65
2022-08-28T22:42:57.323Z,68.52
2022-08-28T22:45:23.733Z,68.09
2022-08-28T22:47:52.552Z,69.57
2022-08-28T22:50:19.377Z,68.96
2022-08-28T22:52:46.739Z,69.28
2022-08-28T22:55:13.785Z,69.61
2022-08-28T22:57:40.340Z,70.12
2022-08-28T23:00:08.026Z,71.68
2022-08-28T23:02:34.833Z,71.65
2022-08-28T23:05:01.245Z,72.89
2022-08-28T23:07:27.597Z,71.47
2022-08-28T23:09:54.022Z,72.04
2022-08-28T23:12:20.382Z,70.83
2022-08-28T23:14:48.701Z,70.73
2022-08-28T23:17:15.460Z,71.15
2022-08-28T23:19:43.636Z,70.16
2022-08-28T23:22:12.912Z,71.25
2022-08-28T23:24:39.287Z,71.64
2022-08-28T23:27:32.533Z,71.54
2022-08-28T23:29:53.235Z,71.65
2022-08-28T23:32:19.947Z,71.13
2022-08-28T23:34:46.395Z,71.68
2022-08-28T23:37:12.832Z,70.96
2022-08-28T23:39:39.222Z,71.40
2022-08-28T23:42:05.701Z,72.70
2022-08-28T23:44:32.173Z,71.64
2022-08-28T23:46:58.657Z,73.44
2022-08-28T23:49:27.058Z,71.37
2022-08-28T23:51:53.565Z,71.47
2022-08-28T23:54:19.933Z,71.24
2022-08-28T23:56:46.365Z,70.99
2022-08-28T23:59:12.938Z,71.52
